createdAt,value
2018-04-26T00:02:47.210Z,7.94
2018-04-26T00:05:50.647Z,7.82
2018-04-26T00:08:53.950Z,7.79
2018-04-26T00:11:57.283Z,7.73
2018-04-26T00:15:01.440Z,7.70
2018-04-26T00:18:04.770Z,7.63
2018-04-26T00:21:08.064Z,7.61
2018-04-26T00:24:11.395Z,7.65
2018-04-26T00:27:16.526Z,7.67
2018-04-26T00:30:21.014Z,7.71
2018-04-26T00:33:24.308Z,7.73
2018-04-26T00:36:27.697Z,7.77
2018-04-26T00:39:31.113Z,7.82
2018-04-26T00:42:34.436Z,7.80
2018-04-26T00:45:37.801Z,7.91
2018-04-26T00:48:41.138Z,7.88
2018-04-26T00:52:04.221Z,7.82
2018-04-26T00:55:07.546Z,7.78
2018-04-26T00:58:10.851Z,7.75
2018-04-26T01:01:14.248Z,7.74
2018-04-26T01:04:17.648Z,7.77
2018-04-26T01:07:20.970Z,7.79
2018-04-26T01:10:24.353Z,7.88
2018-04-26T01:13:27.712Z,7.86
2018-04-26T01:16:31.012Z,7.79
2018-04-26T01:19:34.344Z,7.76
2018-04-26T01:22:37.646Z,7.72
2018-04-26T01:25:41.039Z,7.72
2018-04-26T01:28:44.337Z,7.71
2018-04-26T01:31:47.674Z,7.73
2018-04-26T01:34:50.985Z,7.71
2018-04-26T01:37:55.161Z,7.77
2018-04-26T01:40:58.462Z,7.75
2018-04-26T01:44:01.853Z,7.71
2018-04-26T01:47:05.262Z,7.74
2018-04-26T01:50:08.589Z,7.78
2018-04-26T01:53:11.959Z,7.81
2018-04-26T01:56:15.306Z,7.89
2018-04-26T01:59:19.469Z,7.94
2018-04-26T02:02:22.876Z,7.98
2018-04-26T02:05:26.182Z,8.03
2018-04-26T02:08:29.520Z,8.05
2018-04-26T02:11:32.857Z,8.03
2018-04-26T02:14:36.169Z,8.05
2018-04-26T02:17:39.557Z,8.01
2018-04-26T02:20:42.900Z,8.04
2018-04-26T02:23:47.081Z,8.01
2018-04-26T02:26:50.476Z,7.99
2018-04-26T02:29:53.872Z,7.97
2018-04-26T02:32:57.272Z,7.95
2018-04-26T02:36:00.590Z,7.92
2018-04-26T02:39:03.939Z,7.86
2018-04-26T02:42:07.248Z,7.78
2018-04-26T02:45:10.582Z,7.73
2018-04-26T02:48:14.211Z,7.72
2018-04-26T02:51:18.307Z,7.65
2018-04-26T02:54:22.413Z,7.55
2018-04-26T02:57:25.851Z,7.44
2018-04-26T03:00:29.139Z,7.36
2018-04-26T03:03:32.510Z,7.35
2018-04-26T03:06:35.905Z,7.31
2018-04-26T03:09:39.471Z,7.23
2018-04-26T03:12:42.784Z,7.25
2018-04-26T03:15:46.209Z,7.19
2018-04-26T03:18:49.530Z,7.12
2018-04-26T03:21:52.869Z,7.11
2018-04-26T03:24:56.196Z,7.05
2018-04-26T03:27:59.600Z,7.00
2018-04-26T03:31:03.113Z,6.94
2018-04-26T03:34:06.467Z,6.91
2018-04-26T03:37:09.794Z,6.88
2018-04-26T03:40:13.222Z,6.93
2018-04-26T03:43:16.618Z,6.86
2018-04-26T03:46:20.000Z,6.84
2018-04-26T03:49:23.400Z,6.77
2018-04-26T03:52:26.798Z,6.71
2018-04-26T03:55:30.106Z,6.70
2018-04-26T03:58:33.497Z,6.74
2018-04-26T04:01:54.812Z,6.73
2018-04-26T04:05:25.030Z,6.74
2018-04-26T04:08:28.345Z,6.74
2018-04-26T04:11:31.681Z,6.76
2018-04-26T04:14:35.047Z,6.74
2018-04-26T04:17:38.387Z,6.71
2018-04-26T04:20:42.453Z,6.71
2018-04-26T04:23:45.784Z,6.75
2018-04-26T04:26:49.090Z,6.77
2018-04-26T04:29:52.413Z,6.77
2018-04-26T04:32:55.713Z,6.81
2018-04-26T04:35:59.050Z,6.97
2018-04-26T04:39:02.464Z,7.12
2018-04-26T04:42:05.852Z,7.26
2018-04-26T04:45:09.269Z,7.36
2018-04-26T04:48:13.294Z,7.46
2018-04-26T04:51:16.671Z,7.57
2018-04-26T04:54:19.999Z,7.69
2018-04-26T04:57:24.267Z,7.82
2018-04-26T05:00:27.680Z,7.89
2018-04-26T05:03:31.096Z,7.88
2018-04-26T05:06:34.473Z,7.84
2018-04-26T05:09:37.881Z,7.91
2018-04-26T05:12:41.282Z,7.97
2018-04-26T05:15:44.672Z,8.05
2018-04-26T05:18:48.081Z,8.23
2018-04-26T05:21:51.386Z,8.26
2018-04-26T05:24:54.737Z,8.34
2018-04-26T05:27:58.080Z,8.44
2018-04-26T05:31:01.401Z,8.36
2018-04-26T05:34:04.697Z,8.31
2018-04-26T05:37:08.069Z,8.42
2018-04-26T05:40:11.430Z,8.52
2018-04-26T05:43:14.761Z,8.66
2018-04-26T05:46:18.167Z,8.74
2018-04-26T05:49:21.569Z,8.90
2018-04-26T05:52:24.872Z,8.95
2018-04-26T05:55:28.252Z,8.85
2018-04-26T05:58:31.875Z,8.91
2018-04-26T06:01:36.021Z,9.00
2018-04-26T06:04:39.398Z,9.08
2018-04-26T06:07:42.794Z,9.27
2018-04-26T06:10:46.089Z,9.42
2018-04-26T06:13:49.491Z,9.72
2018-04-26T06:16:52.824Z,9.94
2018-04-26T06:19:57.015Z,9.96
2018-04-26T06:23:00.405Z,9.90
2018-04-26T06:26:03.806Z,10.10
2018-04-26T06:29:07.198Z,10.46
2018-04-26T06:32:10.610Z,10.53
2018-04-26T06:35:14.010Z,10.62
2018-04-26T06:38:17.372Z,10.63
2018-04-26T06:41:20.719Z,10.62
2018-04-26T06:44:24.106Z,10.55
2018-04-26T06:47:27.423Z,10.59
2018-04-26T06:50:30.759Z,10.59
2018-04-26T06:53:34.078Z,10.54
2018-04-26T06:56:37.426Z,10.81
2018-04-26T06:59:41.508Z,10.82
2018-04-26T07:02:44.911Z,10.86
2018-04-26T07:05:48.292Z,10.73
2018-04-26T07:08:51.617Z,10.82
2018-04-26T07:11:55.100Z,11.04
2018-04-26T07:14:58.395Z,11.12
2018-04-26T07:18:01.705Z,11.29
2018-04-26T07:21:05.120Z,11.41
2018-04-26T07:24:08.443Z,11.62
2018-04-26T07:27:12.636Z,11.60
2018-04-26T07:30:16.034Z,11.34
2018-04-26T07:33:19.379Z,11.63
2018-04-26T07:36:22.726Z,11.78
2018-04-26T07:39:26.121Z,12.07
2018-04-26T07:42:29.520Z,12.18
2018-04-26T07:45:32.937Z,11.92
2018-04-26T07:48:36.253Z,12.09
2018-04-26T07:51:40.434Z,12.21
2018-04-26T07:54:43.882Z,12.45
2018-04-26T07:57:48.072Z,12.71
2018-04-26T08:00:51.448Z,12.52
2018-04-26T08:03:54.853Z,12.72
2018-04-26T08:06:58.168Z,12.33
2018-04-26T08:10:01.548Z,12.51
2018-04-26T08:13:04.849Z,12.48
2018-04-26T08:16:08.177Z,12.51
2018-04-26T08:19:11.562Z,12.98
2018-04-26T08:22:14.904Z,13.01
2018-04-26T08:25:18.968Z,12.59
2018-04-26T08:28:22.358Z,12.49
2018-04-26T08:31:25.767Z,12.90
2018-04-26T08:34:29.115Z,13.39
2018-04-26T08:37:33.184Z,13.33
2018-04-26T08:40:36.512Z,13.14
2018-04-26T08:43:39.822Z,13.41
2018-04-26T08:46:44.669Z,13.71
2018-04-26T08:49:48.110Z,13.43
2018-04-26T08:52:51.518Z,13.30
2018-04-26T08:55:54.826Z,13.84
2018-04-26T08:58:58.166Z,13.75
2018-04-26T09:02:01.515Z,13.54
2018-04-26T09:05:04.872Z,13.19
2018-04-26T09:08:08.197Z,12.91
2018-04-26T09:11:11.521Z,13.07
2018-04-26T09:14:14.901Z,13.74
2018-04-26T09:17:18.269Z,14.03
2018-04-26T09:20:21.589Z,13.57
2018-04-26T09:23:24.952Z,13.15
2018-04-26T09:26:28.288Z,12.92
2018-04-26T09:29:31.638Z,12.80
2018-04-26T09:32:36.517Z,12.61
2018-04-26T09:35:39.857Z,12.65
2018-04-26T09:38:43.219Z,12.74
2018-04-26T09:41:46.582Z,13.05
2018-04-26T09:44:49.899Z,13.49
2018-04-26T09:47:53.227Z,14.19
2018-04-26T09:50:56.618Z,14.26
2018-04-26T09:53:59.920Z,14.59
2018-04-26T09:57:03.388Z,14.05
2018-04-26T10:00:06.722Z,13.20
2018-04-26T10:03:10.121Z,13.08
2018-04-26T10:06:30.663Z,13.54
2018-04-26T10:09:34.899Z,12.69
2018-04-26T10:12:38.252Z,12.35
2018-04-26T10:15:41.592Z,12.34
2018-04-26T10:18:44.917Z,12.25
2018-04-26T10:21:48.233Z,12.02
2018-04-26T10:24:51.554Z,11.87
2018-04-26T10:27:54.885Z,11.89
2018-04-26T10:30:58.226Z,11.66
2018-04-26T10:34:01.529Z,11.57
2018-04-26T10:37:04.857Z,11.59
2018-04-26T10:40:08.946Z,11.77
2018-04-26T10:43:12.278Z,11.74
2018-04-26T10:46:16.458Z,11.64
2018-04-26T10:49:19.874Z,11.90
2018-04-26T10:52:23.205Z,12.01
2018-04-26T10:55:27.369Z,11.83
2018-04-26T10:58:30.692Z,12.24
2018-04-26T11:01:34.080Z,13.19
2018-04-26T11:04:37.427Z,13.15
2018-04-26T11:07:40.766Z,13.29
2018-04-26T11:10:44.063Z,13.01
2018-04-26T11:13:47.474Z,12.99
2018-04-26T11:16:50.861Z,13.14
2018-04-26T11:19:54.182Z,13.52
2018-04-26T11:22:57.514Z,13.91
2018-04-26T11:26:02.341Z,14.21
2018-04-26T11:29:05.652Z,14.38
2018-04-26T11:32:08.983Z,14.45
2018-04-26T11:35:12.294Z,14.46
2018-04-26T11:38:15.692Z,14.32
2018-04-26T11:41:19.047Z,13.78
2018-04-26T11:44:22.398Z,13.08
2018-04-26T11:47:25.807Z,12.78
2018-04-26T11:50:29.194Z,12.83
2018-04-26T11:53:32.508Z,12.22
2018-04-26T11:56:35.881Z,12.56
2018-04-26T11:59:39.310Z,13.00
2018-04-26T12:02:43.613Z,13.23
2018-04-26T12:05:46.861Z,12.46
2018-04-26T12:08:50.204Z,12.36
2018-04-26T12:11:53.602Z,12.56
2018-04-26T12:14:56.919Z,12.99
2018-04-26T12:18:00.362Z,12.53
2018-04-26T12:21:03.706Z,12.20
2018-04-26T12:24:07.131Z,12.11
2018-04-26T12:27:10.452Z,12.73
2018-04-26T12:30:13.813Z,12.56
2018-04-26T12:33:17.153Z,12.28
2018-04-26T12:36:20.481Z,12.01
2018-04-26T12:39:23.792Z,11.93
2018-04-26T12:42:27.196Z,11.80
2018-04-26T12:45:31.208Z,11.73
2018-04-26T12:48:34.559Z,11.75
2018-04-26T12:51:37.890Z,11.66
2018-04-26T12:54:41.305Z,11.50
2018-04-26T12:57:44.705Z,11.71
2018-04-26T13:00:48.061Z,11.84
2018-04-26T13:03:51.460Z,12.53
2018-04-26T13:06:54.798Z,12.35
2018-04-26T13:09:58.197Z,12.78
2018-04-26T13:13:01.610Z,12.91
2018-04-26T13:16:05.064Z,12.91
2018-04-26T13:19:08.379Z,13.10
2018-04-26T13:22:11.759Z,13.28
2018-04-26T13:25:15.102Z,13.51
2018-04-26T13:28:18.440Z,13.29
2018-04-26T13:31:22.620Z,13.45
2018-04-26T13:34:26.015Z,13.73
2018-04-26T13:37:29.369Z,13.76
2018-04-26T13:40:32.772Z,13.63
2018-04-26T13:43:36.088Z,13.51
2018-04-26T13:46:39.469Z,13.23
2018-04-26T13:49:42.819Z,12.78
2018-04-26T13:52:46.269Z,12.68
2018-04-26T13:55:49.646Z,12.86
2018-04-26T13:58:53.754Z,12.68
2018-04-26T14:01:57.142Z,12.77
2018-04-26T14:05:00.625Z,12.72
2018-04-26T14:08:04.054Z,12.62
2018-04-26T14:11:08.972Z,12.61
2018-04-26T14:14:12.365Z,12.75
2018-04-26T14:17:15.780Z,12.89
2018-04-26T14:20:19.165Z,12.75
2018-04-26T14:23:22.660Z,12.83
2018-04-26T14:26:25.996Z,12.68
2018-04-26T14:29:30.245Z,12.33
2018-04-26T14:32:33.613Z,12.13
2018-04-26T14:35:37.711Z,12.62
2018-04-26T14:38:41.052Z,12.45
2018-04-26T14:41:45.161Z,12.51
2018-04-26T14:44:49.240Z,13.16
2018-04-26T14:47:52.567Z,13.56
2018-04-26T14:50:56.649Z,13.20
2018-04-26T14:54:00.049Z,12.79
2018-04-26T14:57:03.396Z,12.52
2018-04-26T15:00:06.690Z,12.21
2018-04-26T15:03:10.862Z,12.11
2018-04-26T15:06:14.177Z,12.51
2018-04-26T15:09:17.511Z,12.59
2018-04-26T15:12:22.350Z,12.32
2018-04-26T15:15:25.733Z,12.15
2018-04-26T15:18:29.150Z,11.84
2018-04-26T15:21:32.498Z,11.82
2018-04-26T15:24:35.921Z,11.70
2018-04-26T15:27:39.304Z,11.57
2018-04-26T15:30:42.749Z,11.43
2018-04-26T15:33:46.082Z,11.32
2018-04-26T15:36:49.413Z,11.30
2018-04-26T15:39:52.730Z,11.24
2018-04-26T15:42:57.206Z,11.34
2018-04-26T15:46:00.622Z,11.21
2018-04-26T15:49:03.947Z,11.51
2018-04-26T15:52:08.144Z,11.59
2018-04-26T15:55:30.950Z,11.49
2018-04-26T16:03:02.796Z,10.97
2018-04-26T16:10:17.266Z,10.77
2018-04-26T16:13:44.105Z,10.57
2018-04-26T16:17:25.473Z,10.51
2018-04-26T16:20:52.163Z,10.53
2018-04-26T16:24:18.849Z,10.43
2018-04-26T16:27:43.766Z,11.26
2018-04-26T16:31:10.637Z,11.30
2018-04-26T16:34:43.920Z,10.69
2018-04-26T16:38:10.670Z,10.50
2018-04-26T16:41:14.090Z,10.31
2018-04-26T16:44:17.447Z,10.33
2018-04-26T16:47:20.750Z,11.73
2018-04-26T16:50:24.086Z,11.23
2018-04-26T16:53:27.421Z,10.69
2018-04-26T16:56:30.807Z,10.58
2018-04-26T16:59:34.217Z,10.36
2018-04-26T17:02:37.625Z,10.17
2018-04-26T17:05:41.733Z,10.56
2018-04-26T17:08:45.127Z,10.48
2018-04-26T17:11:48.455Z,10.31
2018-04-26T17:14:52.528Z,10.11
2018-04-26T17:17:55.848Z,10.16
2018-04-26T17:20:59.236Z,10.20
2018-04-26T17:24:02.751Z,10.22
2018-04-26T17:27:06.136Z,10.14
2018-04-26T17:30:09.551Z,9.96
2018-04-26T17:33:12.863Z,9.89
2018-04-26T17:36:16.952Z,9.93
2018-04-26T17:39:20.431Z,9.96
2018-04-26T17:42:23.811Z,10.02
2018-04-26T17:45:28.810Z,9.88
2018-04-26T17:48:32.993Z,9.82
2018-04-26T17:51:36.396Z,9.70
2018-04-26T17:54:39.951Z,9.61
2018-04-26T17:57:43.289Z,9.43
2018-04-26T18:00:46.828Z,9.33
2018-04-26T18:03:50.243Z,9.31
2018-04-26T18:06:54.339Z,9.30
2018-04-26T18:09:57.721Z,9.34
2018-04-26T18:13:01.121Z,9.28
2018-04-26T18:16:04.506Z,9.23
2018-04-26T18:19:07.936Z,9.34
2018-04-26T18:22:11.263Z,9.22
2018-04-26T18:25:15.452Z,9.08
2018-04-26T18:28:19.554Z,8.97
2018-04-26T18:31:22.961Z,8.97
2018-04-26T18:34:26.288Z,8.90
2018-04-26T18:37:29.664Z,8.88
2018-04-26T18:40:33.004Z,8.85
2018-04-26T18:43:36.343Z,8.83
2018-04-26T18:46:39.702Z,8.81
2018-04-26T18:49:42.999Z,8.86
2018-04-26T18:52:46.457Z,8.88
2018-04-26T18:55:49.773Z,8.87
2018-04-26T18:58:53.154Z,8.84
2018-04-26T19:01:56.540Z,8.80
2018-04-26T19:04:59.940Z,8.85
2018-04-26T19:08:03.329Z,8.80
2018-04-26T19:11:06.658Z,8.76
2018-04-26T19:14:10.072Z,8.77
2018-04-26T19:17:14.938Z,8.83
2018-04-26T19:20:18.297Z,8.79
2018-04-26T19:23:21.637Z,8.68
2018-04-26T19:26:25.010Z,8.67
2018-04-26T19:29:29.153Z,8.68
2018-04-26T19:32:32.514Z,8.69
2018-04-26T19:35:35.860Z,8.73
2018-04-26T19:38:39.203Z,8.75
2018-04-26T19:41:42.688Z,8.69
2018-04-26T19:44:46.174Z,8.67
2018-04-26T19:47:49.593Z,8.65
2018-04-26T19:50:53.054Z,8.68
2018-04-26T19:53:56.401Z,8.72
2018-04-26T19:57:00.519Z,8.77
2018-04-26T20:00:03.831Z,8.71
2018-04-26T20:03:07.213Z,8.74
2018-04-26T20:06:10.546Z,8.70
2018-04-26T20:09:14.643Z,8.67
2018-04-26T20:12:17.969Z,8.66
2018-04-26T20:15:22.138Z,8.67
2018-04-26T20:18:25.605Z,8.71
2018-04-26T20:21:28.935Z,8.73
2018-04-26T20:24:32.237Z,8.77
2018-04-26T20:27:35.645Z,8.75
2018-04-26T20:30:40.057Z,8.76
2018-04-26T20:33:43.456Z,8.82
2018-04-26T20:36:47.596Z,8.86
2018-04-26T20:39:50.929Z,8.83
2018-04-26T20:42:54.266Z,8.83
2018-04-26T20:45:57.600Z,8.83
2018-04-26T20:49:00.913Z,8.82
2018-04-26T20:52:05.077Z,8.88
2018-04-26T20:55:08.381Z,8.86
2018-04-26T20:58:11.711Z,8.83
2018-04-26T21:01:15.895Z,8.87
2018-04-26T21:04:19.220Z,8.87
2018-04-26T21:07:22.594Z,8.86
2018-04-26T21:10:25.990Z,8.91
2018-04-26T21:13:29.307Z,8.96
2018-04-26T21:16:32.680Z,8.93
2018-04-26T21:19:35.986Z,8.90
2018-04-26T21:22:39.299Z,8.94
2018-04-26T21:25:42.701Z,8.93
2018-04-26T21:28:46.028Z,8.85
2018-04-26T21:31:50.218Z,8.78
2018-04-26T21:34:53.608Z,8.79
2018-04-26T21:37:56.927Z,8.73
2018-04-26T21:41:00.300Z,8.70
2018-04-26T21:44:03.704Z,8.66
2018-04-26T21:47:07.034Z,8.65
2018-04-26T21:50:15.933Z,8.57
2018-04-26T21:53:24.766Z,8.46
2018-04-26T21:56:33.865Z,8.39
2018-04-26T21:59:42.563Z,8.34
2018-04-26T22:02:46.019Z,8.34
2018-04-26T22:05:49.350Z,8.30
2018-04-26T22:08:53.548Z,8.25
2018-04-26T22:11:56.870Z,8.28
2018-04-26T22:15:00.965Z,8.29
2018-04-26T22:18:05.056Z,8.22
2018-04-26T22:21:08.387Z,8.20
2018-04-26T22:24:11.697Z,8.17
2018-04-26T22:27:15.784Z,8.15
2018-04-26T22:30:19.184Z,8.16
2018-04-26T22:33:22.501Z,8.13
2018-04-26T22:36:25.805Z,8.10
2018-04-26T22:39:29.135Z,8.15
2018-04-26T22:42:32.452Z,8.22
2018-04-26T22:45:35.776Z,8.26
2018-04-26T22:48:39.600Z,8.35
2018-04-26T22:51:42.981Z,8.31
2018-04-26T22:54:46.380Z,8.29
2018-04-26T22:57:49.779Z,8.21
2018-04-26T23:00:53.180Z,8.17
2018-04-26T23:03:56.534Z,8.19
2018-04-26T23:06:59.889Z,8.08
2018-04-26T23:10:03.284Z,8.05
2018-04-26T23:13:07.362Z,8.04
2018-04-26T23:16:10.680Z,8.14
2018-04-26T23:19:13.972Z,8.24
2018-04-26T23:22:17.382Z,8.31
2018-04-26T23:25:20.761Z,8.41
2018-04-26T23:28:24.040Z,8.51
2018-04-26T23:31:27.386Z,8.56
2018-04-26T23:34:30.772Z,8.64
2018-04-26T23:37:34.169Z,8.61
2018-04-26T23:40:37.615Z,8.57
2018-04-26T23:43:41.823Z,8.53
2018-04-26T23:46:45.198Z,8.55
2018-04-26T23:49:48.506Z,8.62
2018-04-26T23:52:51.898Z,8.69
2018-04-26T23:55:55.299Z,8.78
2018-04-26T23:58:58.694Z,8.86
